Time;durP1;ratioP1;P1;durP2;ratioP2;P2;SDS_P1;SDS_P2;PMS_P1;PMS_P2;Temp;Humidity;BMP_temperature;BMP_pressure;BME280_temperature;BME280_humidity;BME280_pressure;Samples;Min_cycle;Max_cycle;Signal;HPM_P1;HPM_P2
2023/03/24 00:02:12;;;;;;;35.27;32.57;;;10.70;91.00;;;;;;5016878;28;20668;-91
2023/03/24 00:04:41;;;;;;;33.80;31.10;;;10.70;91.00;;;;;;5033945;28;20196;-91
2023/03/24 00:07:08;;;;;;;34.13;31.43;;;10.70;90.90;;;;;;5016692;28;20173;-91
2023/03/24 00:09:35;;;;;;;36.33;33.13;;;10.70;90.90;;;;;;5017281;28;20199;-91
2023/03/24 00:12:00;;;;;;;35.00;32.03;;;10.70;91.00;;;;;;5016910;28;20173;-90
2023/03/24 00:14:29;;;;;;;34.87;32.07;;;10.80;91.00;;;;;;5018557;28;20173;-92
2023/03/24 00:16:57;;;;;;;34.43;31.93;;;10.80;90.90;;;;;;5017004;28;20208;-90
2023/03/24 00:19:23;;;;;;;34.73;32.13;;;10.80;91.00;;;;;;5017027;28;20637;-92
2023/03/24 00:21:48;;;;;;;38.07;34.87;;;10.80;91.00;;;;;;5018490;28;20180;-92
2023/03/24 00:24:14;;;;;;;39.30;36.23;;;10.70;91.30;;;;;;5017092;28;20242;-91
2023/03/24 00:26:41;;;;;;;39.63;36.53;;;10.70;91.60;;;;;;5034533;28;20262;-91
2023/03/24 00:29:09;;;;;;;40.07;37.07;;;10.70;91.80;;;;;;5016371;28;20200;-91
2023/03/24 00:31:38;;;;;;;41.80;38.70;;;10.70;92.00;;;;;;5033887;28;20168;-91
2023/03/24 00:34:06;;;;;;;42.13;38.93;;;10.60;92.00;;;;;;5016325;28;20188;-91
2023/03/24 00:36:32;;;;;;;43.13;40.33;;;10.60;92.10;;;;;;5016093;28;20192;-91
2023/03/24 00:38:57;;;;;;;45.60;42.33;;;10.60;92.20;;;;;;5016700;28;20196;-91
2023/03/24 00:41:25;;;;;;;45.83;42.63;;;10.60;92.30;;;;;;5035098;28;20181;-91
2023/03/24 00:43:57;;;;;;;45.17;42.20;;;10.60;92.40;;;;;;5017805;28;20208;-91
2023/03/24 00:46:29;;;;;;;44.17;40.80;;;10.60;92.50;;;;;;5019837;28;20251;-91
2023/03/24 00:49:01;;;;;;;44.77;41.67;;;10.60;92.50;;;;;;5038261;28;20208;-92
2023/03/24 00:51:32;;;;;;;48.17;44.73;;;10.50;92.60;;;;;;5019075;28;20169;-92
2023/03/24 00:53:58;;;;;;;42.93;40.13;;;10.50;92.60;;;;;;5018286;28;20179;-92
2023/03/24 00:56:29;;;;;;;45.30;41.83;;;10.50;92.70;;;;;;5035501;28;20180;-92
2023/03/24 00:58:56;;;;;;;47.13;43.50;;;10.50;92.80;;;;;;5019354;28;20550;-92
2023/03/24 01:01:24;;;;;;;47.70;44.60;;;10.50;92.80;;;;;;5019800;28;20188;-92
2023/03/24 01:03:50;;;;;;;47.77;44.80;;;10.50;92.90;;;;;;5019111;28;20216;-91
2023/03/24 01:06:17;;;;;;;51.37;48.07;;;10.50;92.90;;;;;;5018215;28;20631;-91
2023/03/24 01:08:43;;;;;;;53.67;50.03;;;10.50;92.90;;;;;;5035216;28;20189;-91
2023/03/24 01:11:11;;;;;;;54.60;50.80;;;10.50;92.90;;;;;;5018961;28;20181;-91
2023/03/24 01:13:38;;;;;;;54.93;51.30;;;10.50;93.00;;;;;;5018332;28;20267;-92
2023/03/24 01:16:05;;;;;;;55.97;52.13;;;10.40;93.10;;;;;;5017280;28;20177;-92
2023/03/24 01:18:31;;;;;;;56.60;52.53;;;10.40;93.20;;;;;;5022806;28;20196;-92
2023/03/24 01:20:57;;;;;;;59.57;55.60;;;10.40;93.20;;;;;;5022409;28;20181;-92
2023/03/24 01:23:25;;;;;;;61.07;56.97;;;10.40;93.30;;;;;;5023407;28;20291;-91
2023/03/24 01:25:52;;;;;;;61.90;57.33;;;10.30;93.40;;;;;;5041264;28;20228;-91
2023/03/24 01:28:23;;;;;;;63.60;59.30;;;10.30;93.40;;;;;;5022204;28;20203;-92
2023/03/24 01:30:50;;;;;;;63.63;59.53;;;10.30;93.50;;;;;;5021912;28;20192;-92
2023/03/24 01:33:16;;;;;;;64.60;60.30;;;10.30;93.50;;;;;;5039467;28;20180;-91
2023/03/24 01:35:41;;;;;;;64.03;59.67;;;10.30;93.50;;;;;;5023340;28;20185;-92
2023/03/24 01:38:08;;;;;;;66.00;61.47;;;10.30;93.60;;;;;;5021926;28;20693;-91
2023/03/24 01:40:36;;;;;;;69.07;64.47;;;10.30;93.70;;;;;;5021907;28;20173;-92
2023/03/24 01:43:03;;;;;;;69.20;64.73;;;10.30;93.80;;;;;;5022108;28;20208;-92
2023/03/24 01:45:38;;;;;;;68.97;64.27;;;10.30;93.70;;;;;;5021752;28;20168;-92
2023/03/24 01:48:10;;;;;;;65.73;61.20;;;10.30;93.80;;;;;;5038040;28;20223;-91
2023/03/24 01:50:36;;;;;;;68.13;63.63;;;10.30;93.80;;;;;;5021559;28;20195;-91
2023/03/24 01:53:02;;;;;;;65.17;60.97;;;10.30;93.80;;;;;;5037926;28;20189;-91
2023/03/24 01:55:30;;;;;;;69.90;65.37;;;10.30;93.80;;;;;;5021156;28;20173;-92
2023/03/24 01:57:59;;;;;;;61.40;57.30;;;10.30;93.80;;;;;;5020032;28;20785;-91
2023/03/24 02:00:25;;;;;;;62.57;58.10;;;10.30;93.70;;;;;;5037413;28;20215;-91
2023/03/24 02:02:57;;;;;;;66.40;61.80;;;10.30;93.60;;;;;;5020322;28;20654;-92
2023/03/24 02:05:27;;;;;;;68.37;63.07;;;10.30;93.70;;;;;;5021288;28;20669;-92
2023/03/24 02:08:27;;;;;;;66.73;62.30;;;10.30;93.80;;;;;;5020535;28;20193;-91
2023/03/24 02:10:54;;;;;;;62.30;58.13;;;10.30;93.90;;;;;;5037550;28;20657;-91
2023/03/24 02:13:22;;;;;;;56.93;53.33;;;10.30;93.90;;;;;;5020603;28;20261;-92
2023/03/24 02:16:18;;;;;;;60.73;56.57;;;10.30;94.00;;;;;;5019911;28;20196;-92
2023/03/24 02:19:36;;;;;;;62.83;58.87;;;10.20;94.00;;;;;;4979613;28;20201;-92
2023/03/24 02:22:38;;;;;;;61.90;57.50;;;10.20;94.10;;;;;;5020615;28;20172;-92
2023/03/24 02:25:18;;;;;;;61.73;57.60;;;10.30;94.00;;;;;;5019816;28;20563;-91
2023/03/24 02:28:08;;;;;;;63.00;59.13;;;10.30;94.00;;;;;;5036928;28;20234;-92
2023/03/24 02:31:05;;;;;;;67.17;62.67;;;10.20;94.00;;;;;;5019986;28;20169;-92
2023/03/24 02:33:31;;;;;;;70.80;65.77;;;10.20;94.10;;;;;;5019115;28;20173;-92
2023/03/24 02:36:23;;;;;;;74.57;69.97;;;10.30;94.10;;;;;;5019366;28;20180;-91
2023/03/24 02:39:18;;;;;;;75.23;70.27;;;10.30;94.00;;;;;;5019667;28;20565;-92
2023/03/24 02:42:05;;;;;;;74.13;69.10;;;10.20;94.00;;;;;;5020233;28;20255;-92
2023/03/24 02:45:03;;;;;;;83.67;78.07;;;10.20;94.10;;;;;;5021989;28;20287;-92
2023/03/24 02:47:49;;;;;;;84.13;79.03;;;10.20;94.20;;;;;;5039290;28;20224;-93
2023/03/24 02:50:43;;;;;;;87.67;82.07;;;10.20;94.30;;;;;;5032737;28;20651;-93
2023/03/24 02:53:34;;;;;;;89.73;83.77;;;10.20;94.40;;;;;;5029287;28;20211;-93
2023/03/24 02:56:29;;;;;;;96.03;89.83;;;10.20;94.40;;;;;;5034825;28;20188;-93
2023/03/24 02:59:01;;;;;;;99.03;92.97;;;10.10;94.50;;;;;;5029858;28;20196;-93
2023/03/24 03:01:34;;;;;;;101.23;94.97;;;10.20;94.60;;;;;;5031936;28;20168;-94
2023/03/24 03:04:15;;;;;;;100.17;93.93;;;10.20;94.60;;;;;;5032266;28;20233;-93
2023/03/24 03:06:46;;;;;;;105.30;98.90;;;10.20;94.60;;;;;;5031980;28;20157;-93
2023/03/24 03:09:16;;;;;;;102.77;96.43;;;10.30;94.60;;;;;;5032126;28;20189;-93
2023/03/24 03:11:47;;;;;;;104.20;97.87;;;10.30;94.60;;;;;;5032157;28;20223;-93
2023/03/24 03:14:38;;;;;;;102.10;96.23;;;10.30;94.60;;;;;;5037500;28;20165;-93
2023/03/24 03:17:21;;;;;;;104.53;97.80;;;10.40;94.60;;;;;;5038271;28;20145;-93
2023/03/24 03:19:52;;;;;;;106.13;99.83;;;10.30;94.60;;;;;;5037893;28;20229;-94
2023/03/24 03:22:24;;;;;;;108.10;101.23;;;10.30;94.60;;;;;;5038287;28;20169;-93
2023/03/24 03:24:53;;;;;;;106.43;99.83;;;10.30;94.60;;;;;;5035763;28;20255;-93
2023/03/24 03:27:37;;;;;;;108.60;102.07;;;10.30;94.70;;;;;;5036303;28;20193;-93
2023/03/24 03:30:40;;;;;;;107.67;101.07;;;10.30;94.70;;;;;;5030701;28;20161;-93
2023/03/24 03:33:26;;;;;;;106.87;100.63;;;10.30;94.80;;;;;;5026587;28;20176;-92
2023/03/24 03:36:15;;;;;;;110.37;103.97;;;10.30;94.80;;;;;;5032304;28;20145;-92
2023/03/24 03:39:09;;;;;;;103.30;97.20;;;10.40;94.80;;;;;;5031451;28;20702;-93
2023/03/24 03:41:36;;;;;;;106.40;100.30;;;10.40;94.70;;;;;;5029632;28;20507;-93
2023/03/24 03:44:01;;;;;;;98.13;91.83;;;10.50;94.70;;;;;;5026363;28;20206;-93
2023/03/24 03:46:27;;;;;;;93.83;87.80;;;10.60;94.50;;;;;;5030163;28;20268;-95
2023/03/24 03:48:53;;;;;;;107.17;100.87;;;10.60;94.40;;;;;;5033198;28;20579;-94
2023/03/24 03:51:19;;;;;;;104.37;98.13;;;10.70;94.30;;;;;;5033587;28;20236;-94
2023/03/24 03:53:55;;;;;;;95.47;89.87;;;10.70;94.10;;;;;;5033918;28;20203;-95
2023/03/24 03:56:23;;;;;;;92.83;87.13;;;10.70;94.10;;;;;;5029928;28;20192;-95
2023/03/24 03:58:49;;;;;;;99.33;93.37;;;10.70;94.10;;;;;;5028646;28;20201;-95
2023/03/24 04:01:18;;;;;;;106.30;99.90;;;10.70;94.10;;;;;;5027441;28;20181;-93
2023/03/24 04:03:55;;;;;;;102.93;96.77;;;10.80;93.90;;;;;;5025070;28;20200;-94
2023/03/24 04:06:46;;;;;;;104.20;98.10;;;10.80;94.00;;;;;;5023245;28;20175;-94
2023/03/24 04:09:50;;;;;;;112.23;105.67;;;10.80;94.00;;;;;;5025964;28;20207;-94
2023/03/24 04:12:34;;;;;;;113.20;106.33;;;10.80;94.10;;;;;;4987961;28;20216;-94
2023/03/24 04:15:27;;;;;;;101.93;96.03;;;10.80;94.00;;;;;;5025888;28;20180;-93
2023/03/24 04:17:58;;;;;;;111.50;104.80;;;10.80;94.00;;;;;;5025362;28;20197;-95
2023/03/24 04:20:31;;;;;;;107.50;101.37;;;10.80;94.00;;;;;;5028880;28;20179;-93
2023/03/24 04:23:25;;;;;;;101.80;95.70;;;10.80;94.00;;;;;;5025495;28;20184;-93
2023/03/24 04:26:33;;;;;;;106.37;99.97;;;10.90;94.00;;;;;;5016285;28;20223;-94
2023/03/24 04:29:28;;;;;;;112.37;106.03;;;10.90;93.90;;;;;;5023823;28;20219;-94
2023/03/24 04:32:18;;;;;;;113.47;106.87;;;10.90;94.10;;;;;;5029589;28;20173;-94
2023/03/24 04:34:49;;;;;;;114.97;108.03;;;10.90;94.20;;;;;;5025279;28;20169;-94
2023/03/24 04:37:24;;;;;;;121.60;114.43;;;10.90;94.20;;;;;;5032273;28;20196;-93
2023/03/24 04:39:57;;;;;;;121.57;114.57;;;10.90;94.30;;;;;;5033528;28;20206;-93
2023/03/24 04:42:36;;;;;;;123.27;116.07;;;10.90;94.40;;;;;;5031977;28;20165;-93
2023/03/24 04:45:04;;;;;;;112.87;106.53;;;10.90;94.50;;;;;;5026703;28;20188;-94
2023/03/24 04:47:37;;;;;;;121.60;114.40;;;10.80;94.60;;;;;;5029739;28;20251;-94
2023/03/24 04:50:09;;;;;;;116.87;110.27;;;10.80;94.70;;;;;;5031780;28;20235;-94
2023/03/24 04:52:39;;;;;;;117.07;110.30;;;10.80;94.80;;;;;;5037183;28;20145;-94
2023/03/24 04:55:27;;;;;;;120.73;113.43;;;10.80;94.90;;;;;;5037430;28;20168;-94
2023/03/24 04:57:53;;;;;;;122.20;114.97;;;10.90;95.00;;;;;;5036789;28;20220;-95
2023/03/24 05:00:19;;;;;;;124.77;117.47;;;10.90;94.90;;;;;;5034017;28;20538;-94
2023/03/24 05:02:44;;;;;;;122.40;115.30;;;10.90;95.00;;;;;;5035315;28;20172;-93
2023/03/24 05:05:10;;;;;;;123.63;116.63;;;10.90;95.00;;;;;;5036385;28;20204;-94
2023/03/24 05:07:36;;;;;;;123.90;116.57;;;10.90;95.00;;;;;;5038251;28;20288;-94
2023/03/24 05:10:02;;;;;;;111.63;105.23;;;10.90;95.10;;;;;;5034210;28;20180;-94
2023/03/24 05:12:27;;;;;;;116.03;109.37;;;10.90;95.10;;;;;;5030246;28;20301;-93
2023/03/24 05:14:53;;;;;;;121.33;113.90;;;10.90;95.10;;;;;;5028526;28;20344;-93
2023/03/24 05:17:18;;;;;;;126.93;119.53;;;11.00;95.10;;;;;;5032865;28;20203;-93
2023/03/24 05:19:44;;;;;;;123.67;116.57;;;11.00;95.10;;;;;;5029729;28;20181;-94
2023/03/24 05:22:10;;;;;;;127.90;120.33;;;11.00;95.10;;;;;;5031966;28;20227;-94
2023/03/24 05:24:35;;;;;;;128.57;121.23;;;11.00;95.00;;;;;;5030076;28;20250;-94
2023/03/24 05:27:01;;;;;;;125.97;118.73;;;11.10;95.00;;;;;;5034815;28;20180;-93
2023/03/24 05:29:26;;;;;;;126.33;118.90;;;11.10;95.00;;;;;;5031911;28;20180;-94
2023/03/24 05:31:52;;;;;;;126.73;119.43;;;11.10;95.00;;;;;;5032098;28;20184;-93
2023/03/24 05:34:17;;;;;;;125.37;118.10;;;11.20;94.90;;;;;;5032159;28;20181;-93
2023/03/24 05:36:43;;;;;;;126.67;119.37;;;11.20;94.80;;;;;;5032940;28;20199;-93
2023/03/24 05:39:09;;;;;;;127.97;120.70;;;11.20;94.80;;;;;;5032948;28;20204;-93
2023/03/24 05:41:34;;;;;;;123.63;116.33;;;11.20;94.80;;;;;;5031852;28;20643;-93
2023/03/24 05:44:00;;;;;;;117.60;110.70;;;11.20;94.70;;;;;;5031549;28;20204;-94
2023/03/24 05:46:25;;;;;;;122.03;114.83;;;11.20;94.70;;;;;;5037061;28;20188;-94
2023/03/24 05:48:51;;;;;;;134.37;126.53;;;11.20;94.70;;;;;;5039145;28;20204;-93
2023/03/24 05:51:16;;;;;;;128.73;121.40;;;11.20;94.80;;;;;;5032135;28;20173;-93
2023/03/24 05:53:42;;;;;;;122.67;115.67;;;11.20;94.70;;;;;;5034236;28;20208;-93
2023/03/24 05:56:11;;;;;;;126.50;119.20;;;11.20;94.70;;;;;;5034293;28;20177;-94
2023/03/24 05:58:38;;;;;;;128.33;121.13;;;11.30;94.70;;;;;;5035699;28;20215;-93
2023/03/24 06:01:10;;;;;;;130.97;123.40;;;11.30;94.70;;;;;;5031982;28;20177;-93
2023/03/24 06:03:40;;;;;;;144.47;136.47;;;11.30;94.70;;;;;;5032712;28;20205;-93
2023/03/24 06:06:07;;;;;;;151.43;142.90;;;11.30;94.90;;;;;;5033729;28;20200;-93
2023/03/24 06:08:34;;;;;;;156.97;148.07;;;11.30;95.00;;;;;;5032664;28;20196;-93
2023/03/24 06:11:01;;;;;;;158.60;149.73;;;11.30;95.00;;;;;;5036102;28;20177;-94
2023/03/24 06:13:31;;;;;;;167.50;158.03;;;11.30;95.00;;;;;;5035258;28;20173;-93
2023/03/24 06:15:57;;;;;;;152.90;144.30;;;11.40;95.00;;;;;;5032520;28;20207;-93
2023/03/24 06:18:27;;;;;;;153.47;144.77;;;11.40;94.90;;;;;;5032317;28;20208;-90
2023/03/24 06:20:56;;;;;;;157.07;148.40;;;11.40;94.90;;;;;;5026465;28;20177;-93
2023/03/24 06:23:24;;;;;;;154.30;145.70;;;11.50;94.90;;;;;;5028218;28;20180;-92
2023/03/24 06:25:51;;;;;;;141.10;133.00;;;11.50;94.80;;;;;;5024051;28;20248;-91
2023/03/24 06:28:17;;;;;;;141.80;133.97;;;11.60;94.60;;;;;;5024250;28;20201;-93
2023/03/24 06:30:43;;;;;;;150.07;141.73;;;11.50;94.50;;;;;;5033496;28;20229;-94
2023/03/24 06:33:10;;;;;;;157.53;148.73;;;11.50;94.60;;;;;;5036986;28;20165;-93
2023/03/24 06:35:36;;;;;;;138.97;131.03;;;11.50;94.70;;;;;;5037471;28;20625;-93
2023/03/24 06:38:03;;;;;;;156.93;148.33;;;11.50;94.70;;;;;;5040212;28;20191;-93
2023/03/24 06:40:29;;;;;;;159.37;149.97;;;11.60;94.60;;;;;;5042051;28;20176;-93
2023/03/24 06:42:59;;;;;;;161.80;152.67;;;11.60;94.70;;;;;;5039855;28;20180;-93
2023/03/24 06:45:30;;;;;;;163.50;154.50;;;11.50;94.70;;;;;;5037581;28;20228;-94
2023/03/24 06:48:10;;;;;;;145.83;137.73;;;11.60;94.50;;;;;;5040834;28;20208;-94
2023/03/24 06:51:01;;;;;;;127.27;120.17;;;11.60;93.90;;;;;;5041043;28;20196;-94
2023/03/24 06:53:29;;;;;;;113.83;107.50;;;11.50;92.90;;;;;;5041918;28;20180;-93
2023/03/24 06:55:55;;;;;;;120.93;114.23;;;11.50;92.50;;;;;;5041313;28;20161;-93
2023/03/24 06:58:21;;;;;;;124.47;117.57;;;11.50;92.20;;;;;;5041439;28;20217;-93
2023/03/24 07:00:47;;;;;;;114.47;107.90;;;11.50;92.10;;;;;;5040953;28;20176;-92
2023/03/24 07:03:14;;;;;;;112.03;105.73;;;11.50;91.80;;;;;;5041559;28;20176;-94
2023/03/24 07:05:44;;;;;;;124.57;117.37;;;11.50;91.70;;;;;;5041487;28;20188;-93
2023/03/24 07:08:11;;;;;;;90.30;85.17;;;11.40;91.80;;;;;;5036630;28;20213;-93
2023/03/24 07:10:40;;;;;;;84.80;79.80;;;11.30;90.60;;;;;;5039432;28;20180;-93
2023/03/24 07:13:07;;;;;;;74.17;69.87;;;11.30;90.60;;;;;;5037523;28;20196;-93
2023/03/24 07:15:33;;;;;;;74.07;69.77;;;11.30;90.10;;;;;;5037439;28;20181;-93
2023/03/24 07:17:58;;;;;;;61.57;57.30;;;11.30;90.20;;;;;;5036970;28;20260;-93
2023/03/24 07:20:25;;;;;;;62.70;58.77;;;11.20;89.20;;;;;;5038183;28;20176;-93
2023/03/24 07:22:54;;;;;;;64.73;60.87;;;11.20;89.30;;;;;;5036168;28;20181;-92
2023/03/24 07:25:20;;;;;;;65.03;61.40;;;11.20;89.50;;;;;;5034132;28;20231;-93
2023/03/24 07:27:46;;;;;;;64.80;61.00;;;11.10;89.70;;;;;;5035982;28;20234;-93
2023/03/24 07:30:13;;;;;;;49.30;46.50;;;11.10;89.80;;;;;;5029968;28;20710;-92
2023/03/24 07:32:39;;;;;;;46.93;43.87;;;11.20;88.20;;;;;;5028139;28;20230;-93
2023/03/24 07:35:09;;;;;;;46.23;43.37;;;11.00;87.80;;;;;;5029984;28;20200;-93
2023/03/24 07:37:36;;;;;;;36.90;34.27;;;10.90;87.50;;;;;;5036058;28;20207;-93
2023/03/24 07:40:05;;;;;;;31.60;29.27;;;10.80;87.60;;;;;;5035372;28;20173;-92
2023/03/24 07:42:31;;;;;;;36.23;33.53;;;10.80;87.50;;;;;;5035927;28;20181;-93
2023/03/24 07:44:57;;;;;;;33.27;31.17;;;10.90;88.00;;;;;;5034138;28;20269;-93
2023/03/24 07:47:25;;;;;;;33.10;30.80;;;11.00;88.10;;;;;;5032076;28;20220;-93
2023/03/24 07:49:50;;;;;;;31.63;29.47;;;11.00;87.90;;;;;;5028941;28;20180;-93
2023/03/24 07:52:16;;;;;;;31.63;28.70;;;11.00;87.70;;;;;;5033504;28;20207;-92
2023/03/24 07:54:42;;;;;;;30.27;28.03;;;11.20;87.40;;;;;;5034340;28;20176;-93
2023/03/24 07:57:07;;;;;;;27.97;25.80;;;11.30;87.30;;;;;;5034900;28;20185;-93
2023/03/24 07:59:33;;;;;;;28.97;26.73;;;11.30;86.50;;;;;;5033147;28;20181;-93
2023/03/24 08:01:59;;;;;;;27.77;25.77;;;11.30;86.40;;;;;;5031549;28;20657;-93
2023/03/24 08:04:26;;;;;;;26.10;24.13;;;11.30;85.70;;;;;;5035518;28;20211;-93
2023/03/24 08:06:52;;;;;;;30.13;27.80;;;11.30;85.40;;;;;;5034966;28;20177;-93
2023/03/24 08:09:18;;;;;;;28.43;26.07;;;11.30;86.50;;;;;;5032915;28;20197;-92
2023/03/24 08:11:44;;;;;;;29.83;27.00;;;11.40;85.80;;;;;;5032057;28;20177;-93
2023/03/24 08:14:10;;;;;;;27.90;25.63;;;11.60;86.40;;;;;;5028960;28;20173;-93
2023/03/24 08:16:37;;;;;;;26.27;24.33;;;11.50;85.30;;;;;;5030041;28;20199;-93
2023/03/24 08:19:06;;;;;;;26.67;24.40;;;11.50;85.00;;;;;;5031127;28;20207;-93
2023/03/24 08:21:32;;;;;;;22.93;21.43;;;11.60;84.80;;;;;;5023354;28;20177;-92
2023/03/24 08:23:57;;;;;;;26.87;24.37;;;11.50;83.70;;;;;;5020930;28;20291;-92
2023/03/24 08:26:25;;;;;;;24.57;22.53;;;11.50;84.50;;;;;;5022880;28;20200;-92
2023/03/24 08:28:51;;;;;;;26.50;24.60;;;11.60;83.80;;;;;;5021747;28;20674;-92
2023/03/24 08:31:17;;;;;;;25.03;22.47;;;11.70;84.40;;;;;;5025269;28;20168;-92
2023/03/24 08:33:42;;;;;;;25.77;21.80;;;11.80;82.40;;;;;;5026145;28;20665;-92
2023/03/24 08:36:08;;;;;;;25.17;22.47;;;11.80;82.40;;;;;;5025300;28;20180;-93
2023/03/24 08:38:37;;;;;;;22.33;20.47;;;11.50;83.00;;;;;;5022629;28;20196;-93
2023/03/24 08:41:05;;;;;;;22.73;20.47;;;11.40;83.10;;;;;;5025356;28;20187;-93
2023/03/24 08:43:32;;;;;;;22.07;20.23;;;11.40;82.80;;;;;;5024554;28;20573;-92
2023/03/24 08:46:00;;;;;;;21.07;18.93;;;11.50;82.90;;;;;;5021151;28;20172;-92
2023/03/24 08:48:27;;;;;;;21.83;19.67;;;11.60;81.70;;;;;;5021983;28;20219;-92
2023/03/24 08:50:53;;;;;;;21.47;19.57;;;11.50;82.40;;;;;;5020846;28;20177;-91
2023/03/24 08:53:19;;;;;;;24.23;21.63;;;11.30;82.30;;;;;;5017769;28;20271;-90
2023/03/24 08:55:45;;;;;;;23.87;21.57;;;11.30;83.50;;;;;;5034582;28;20169;-91
2023/03/24 08:58:16;;;;;;;25.97;21.63;;;11.30;83.50;;;;;;5020574;28;20197;-91
2023/03/24 09:00:43;;;;;;;26.47;21.77;;;11.60;83.90;;;;;;5019296;28;20238;-91
2023/03/24 09:03:16;;;;;;;27.63;23.60;;;11.50;83.50;;;;;;5026212;28;20176;-91
2023/03/24 09:05:43;;;;;;;24.43;22.00;;;11.50;84.20;;;;;;5019133;28;20179;-90
2023/03/24 09:08:09;;;;;;;24.53;22.03;;;11.40;84.00;;;;;;5017673;28;20679;-92
2023/03/24 09:10:35;;;;;;;22.97;20.83;;;11.30;84.20;;;;;;5020808;28;20176;-92
2023/03/24 09:13:00;;;;;;;23.13;21.17;;;11.20;83.20;;;;;;5019620;28;20184;-92
2023/03/24 09:15:26;;;;;;;23.70;21.50;;;11.30;84.10;;;;;;5020565;28;20543;-92
2023/03/24 09:17:51;;;;;;;21.93;19.90;;;11.30;84.00;;;;;;5029658;28;20200;-91
2023/03/24 09:20:17;;;;;;;24.60;21.07;;;11.40;82.70;;;;;;5035309;28;20192;-92
2023/03/24 09:22:45;;;;;;;26.50;21.03;;;11.50;82.80;;;;;;5028350;28;20173;-91
2023/03/24 09:25:14;;;;;;;21.73;19.27;;;11.40;80.40;;;;;;5031746;28;20193;-92
2023/03/24 09:27:39;;;;;;;22.40;20.03;;;11.50;81.20;;;;;;5043003;28;20172;-91
2023/03/24 09:30:06;;;;;;;25.83;23.40;;;11.50;82.30;;;;;;5044110;28;20535;-90
2023/03/24 09:32:32;;;;;;;23.13;20.80;;;11.50;83.50;;;;;;5015433;28;20181;-89
2023/03/24 09:34:59;;;;;;;24.33;22.03;;;11.40;81.80;;;;;;5033840;28;20169;-91
2023/03/24 09:37:28;;;;;;;24.63;22.10;;;11.60;82.50;;;;;;5040313;28;20191;-91
2023/03/24 09:39:54;;;;;;;25.63;22.90;;;11.60;82.30;;;;;;5027218;28;20176;-92
2023/03/24 09:42:22;;;;;;;24.23;22.20;;;11.80;83.00;;;;;;5029901;28;20180;-91
2023/03/24 09:44:54;;;;;;;23.27;21.30;;;12.00;82.10;;;;;;5019591;28;20207;-89
2023/03/24 09:47:42;;;;;;;22.13;20.50;;;11.80;80.80;;;;;;5021550;28;20197;-90
2023/03/24 09:50:28;;;;;;;23.73;21.50;;;11.80;81.50;;;;;;5041610;28;20181;-90
2023/03/24 09:53:01;;;;;;;21.40;19.60;;;11.70;80.80;;;;;;5020797;28;20226;-90
2023/03/24 09:55:27;;;;;;;20.87;18.70;;;11.50;80.00;;;;;;5021530;28;20181;-90
2023/03/24 09:58:02;;;;;;;23.07;20.90;;;11.50;79.60;;;;;;5041295;28;20200;-90
2023/03/24 10:00:30;;;;;;;20.27;18.40;;;11.50;80.10;;;;;;5021799;28;20530;-90
2023/03/24 10:03:00;;;;;;;22.93;20.77;;;11.50;80.80;;;;;;5019822;28;20181;-91
2023/03/24 10:05:41;;;;;;;20.63;18.50;;;11.40;79.70;;;;;;5020195;28;20204;-91
2023/03/24 10:08:18;;;;;;;21.97;19.10;;;11.50;80.50;;;;;;5019867;28;20274;-91
2023/03/24 10:11:14;;;;;;;19.23;17.53;;;11.40;80.50;;;;;;5023160;28;20165;-91
2023/03/24 10:14:03;;;;;;;20.60;18.80;;;11.50;80.60;;;;;;5020093;28;20173;-90
2023/03/24 10:16:53;;;;;;;22.30;19.07;;;11.40;80.90;;;;;;5036851;28;20260;-90
2023/03/24 10:19:44;;;;;;;19.97;18.10;;;11.30;80.60;;;;;;5023628;28;20205;-91
2023/03/24 10:22:20;;;;;;;19.50;16.90;;;11.30;81.00;;;;;;5021295;28;20176;-91
2023/03/24 10:25:02;;;;;;;22.10;19.73;;;11.30;81.20;;;;;;5020193;28;20196;-90
2023/03/24 10:27:34;;;;;;;21.17;18.97;;;11.40;81.80;;;;;;5019904;28;20208;-90
2023/03/24 10:30:13;;;;;;;23.60;19.67;;;11.50;80.70;;;;;;5037104;28;20174;-90
2023/03/24 10:32:41;;;;;;;26.63;18.73;;;11.60;79.90;;;;;;5019349;28;20167;-89
2023/03/24 10:35:19;;;;;;;21.00;19.10;;;11.60;81.00;;;;;;5035337;28;20588;-89
2023/03/24 10:37:45;;;;;;;20.97;18.87;;;11.60;80.40;;;;;;5017540;28;20204;-89
2023/03/24 10:40:21;;;;;;;21.43;19.63;;;11.70;80.60;;;;;;5017600;28;20191;-89
2023/03/24 10:42:48;;;;;;;23.00;20.57;;;11.60;80.20;;;;;;5017565;28;20176;-89
2023/03/24 10:45:38;;;;;;;22.10;19.77;;;11.60;78.60;;;;;;5035108;28;20662;-89
2023/03/24 10:48:04;;;;;;;19.77;18.03;;;11.60;78.60;;;;;;5034735;28;20225;-89
2023/03/24 10:50:32;;;;;;;20.37;18.57;;;11.60;79.40;;;;;;5034441;28;20173;-89
2023/03/24 10:52:58;;;;;;;21.63;19.43;;;11.60;79.80;;;;;;5035005;28;20165;-89
2023/03/24 10:55:30;;;;;;;20.83;18.87;;;11.70;79.90;;;;;;5018385;28;20643;-89
2023/03/24 10:58:00;;;;;;;22.83;18.17;;;11.80;79.10;;;;;;5017277;28;20279;-90
2023/03/24 11:00:30;;;;;;;20.60;18.43;;;12.30;79.50;;;;;;5017391;28;20183;-89
2023/03/24 11:03:00;;;;;;;22.33;20.23;;;12.50;77.50;;;;;;5035200;28;20165;-89
2023/03/24 11:05:29;;;;;;;21.57;19.07;;;12.40;77.80;;;;;;5017129;28;20196;-89
2023/03/24 11:08:10;;;;;;;22.37;18.73;;;12.40;76.90;;;;;;5016969;28;20242;-90
2023/03/24 11:10:35;;;;;;;22.63;20.40;;;12.50;77.10;;;;;;5034751;28;20570;-89
2023/03/24 11:13:04;;;;;;;19.97;17.67;;;12.70;77.10;;;;;;5016897;28;20219;-89
2023/03/24 11:15:32;;;;;;;24.03;19.67;;;13.00;78.10;;;;;;5034704;28;20176;-90
2023/03/24 11:18:11;;;;;;;20.33;18.20;;;12.80;76.00;;;;;;5016750;28;20208;-89
2023/03/24 11:20:38;;;;;;;23.03;19.93;;;12.80;76.10;;;;;;5034584;28;20639;-89
2023/03/24 11:23:17;;;;;;;24.07;17.80;;;13.00;75.40;;;;;;5034539;28;20187;-89
2023/03/24 11:25:49;;;;;;;19.77;15.83;;;13.20;75.30;;;;;;5034499;28;20684;-89
2023/03/24 11:28:18;;;;;;;19.90;14.60;;;13.30;75.50;;;;;;5034409;28;20193;-89
2023/03/24 11:30:47;;;;;;;21.27;14.70;;;13.20;75.00;;;;;;5016580;28;20279;-89
2023/03/24 11:33:18;;;;;;;21.40;15.70;;;12.90;76.00;;;;;;5016513;28;20181;-90
2023/03/24 11:35:43;;;;;;;22.80;15.50;;;12.60;74.70;;;;;;5016644;28;20536;-89
2023/03/24 11:38:15;;;;;;;21.37;15.03;;;12.60;75.40;;;;;;5034273;28;20196;-90
2023/03/24 11:40:53;;;;;;;20.93;14.87;;;12.60;75.60;;;;;;5034261;28;20682;-89
2023/03/24 11:43:20;;;;;;;22.80;15.00;;;12.60;76.10;;;;;;5034277;28;20157;-89
2023/03/24 11:45:58;;;;;;;19.03;14.13;;;12.50;76.50;;;;;;5034057;28;20168;-89
2023/03/24 11:48:48;;;;;;;18.87;14.20;;;12.30;75.70;;;;;;5016157;28;20211;-89
2023/03/24 11:51:27;;;;;;;23.17;15.30;;;12.30;76.10;;;;;;5034000;28;20517;-89
2023/03/24 11:53:55;;;;;;;24.13;14.47;;;12.10;75.50;;;;;;5016316;28;20650;-89
2023/03/24 11:56:40;;;;;;;18.43;13.93;;;12.30;76.10;;;;;;5016372;28;20181;-89
2023/03/24 11:59:39;;;;;;;22.60;14.07;;;12.80;74.30;;;;;;5033841;28;20215;-90
2023/03/24 12:02:15;;;;;;;20.53;13.20;;;12.70;75.00;;;;;;5033022;28;20219;-89
2023/03/24 12:04:48;;;;;;;19.17;13.50;;;12.40;74.10;;;;;;5015987;28;20209;-89
2023/03/24 12:07:26;;;;;;;25.10;14.80;;;12.70;75.80;;;;;;5033731;28;20237;-89
2023/03/24 12:10:15;;;;;;;15.50;13.97;;;13.30;74.00;;;;;;5033697;28;20259;-89
2023/03/24 12:12:50;;;;;;;15.43;13.90;;;13.50;73.50;;;;;;5033465;28;20208;-90
2023/03/24 12:15:41;;;;;;;18.80;15.50;;;13.70;72.70;;;;;;5015942;28;20632;-89
2023/03/24 12:18:13;;;;;;;17.23;14.40;;;13.70;70.40;;;;;;5033527;28;20278;-89
2023/03/24 12:20:55;;;;;;;19.97;14.40;;;13.80;71.80;;;;;;5015878;28;20164;-90
2023/03/24 12:23:36;;;;;;;25.00;15.27;;;14.00;71.70;;;;;;5033439;28;20164;-89
2023/03/24 12:26:22;;;;;;;19.07;14.20;;;14.10;69.50;;;;;;5033434;28;20164;-89
2023/03/24 12:28:54;;;;;;;19.00;14.10;;;14.20;68.70;;;;;;5033213;28;20204;-89
2023/03/24 12:31:55;;;;;;;17.70;14.47;;;14.20;68.70;;;;;;5015704;28;20800;-89
2023/03/24 12:34:56;;;;;;;18.73;14.37;;;14.10;67.00;;;;;;5015620;28;20187;-89
2023/03/24 12:38:04;;;;;;;19.87;17.47;;;14.30;66.30;;;;;;5033472;28;20222;-89
2023/03/24 12:40:59;;;;;;;19.30;17.63;;;14.20;63.60;;;;;;5015657;28;20189;-89
2023/03/24 12:43:36;;;;;;;19.83;17.77;;;14.10;63.90;;;;;;5015433;28;20618;-89
2023/03/24 12:46:16;;;;;;;19.47;17.43;;;14.10;61.90;;;;;;5033556;28;20164;-89
2023/03/24 12:49:04;;;;;;;22.00;18.00;;;14.30;62.00;;;;;;5015369;28;20303;-89